Time;durP1;ratioP1;P1;durP2;ratioP2;P2;SDS_P1;SDS_P2;PMS_P1;PMS_P2;Temp;Humidity;BMP_temperature;BMP_pressure;BME280_temperature;BME280_humidity;BME280_pressure;Samples;Min_cycle;Max_cycle;Signal;HPM_P1;HPM_P2
2021/03/03 00:01:40;;;;;;;35.83;17.52;;;;;;;2.79;72.34;96709.09;4991350;28;20046;-81
2021/03/03 00:04:05;;;;;;;32.90;17.92;;;;;;;2.75;71.87;96706.06;4993521;28;20034;-80
2021/03/03 00:06:30;;;;;;;37.80;17.38;;;;;;;2.71;71.91;96710.16;4991474;28;20034;-80
2021/03/03 00:08:58;;;;;;;38.97;18.30;;;;;;;2.72;72.74;96697.84;4991206;28;20038;-79
2021/03/03 00:11:23;;;;;;;35.88;19.23;;;;;;;2.74;72.19;96699.22;4991552;28;20429;-80
2021/03/03 00:13:48;;;;;;;38.65;19.00;;;;;;;2.79;72.55;96709.88;4991387;28;20133;-80
2021/03/03 00:16:13;;;;;;;35.28;18.98;;;;;;;2.64;72.65;96690.22;4974096;28;20030;-80
2021/03/03 00:18:39;;;;;;;36.38;17.92;;;;;;;2.75;72.29;96698.19;4992870;28;20058;-80
2021/03/03 00:21:04;;;;;;;40.17;18.92;;;;;;;2.75;72.65;96700.00;4991297;28;20039;-81
2021/03/03 00:23:29;;;;;;;35.58;17.30;;;;;;;2.66;72.78;96685.53;4991019;28;20563;-79
2021/03/03 00:25:55;;;;;;;29.15;16.95;;;;;;;2.66;72.87;96690.78;4991273;28;20125;-81
2021/03/03 00:28:20;;;;;;;36.67;17.70;;;;;;;2.73;72.75;96700.25;4991001;28;20469;-81
2021/03/03 00:30:45;;;;;;;39.47;19.70;;;;;;;2.73;72.76;96709.94;4975964;28;20030;-80
2021/03/03 00:33:10;;;;;;;30.17;17.83;;;;;;;2.66;72.87;96699.47;4991056;28;20185;-80
2021/03/03 00:35:36;;;;;;;34.65;17.55;;;;;;;2.65;72.40;96689.19;4991091;28;20672;-81
2021/03/03 00:38:01;;;;;;;37.70;17.92;;;;;;;2.65;72.51;96695.25;4990988;28;20057;-81
2021/03/03 00:40:26;;;;;;;32.08;17.58;;;;;;;2.62;72.68;96687.81;4991143;28;20030;-81
2021/03/03 00:42:52;;;;;;;35.15;18.83;;;;;;;2.60;72.55;96681.97;4995533;28;20040;-80
2021/03/03 00:45:17;;;;;;;31.17;17.52;;;;;;;2.69;72.55;96688.56;4977235;28;20716;-80
2021/03/03 00:47:42;;;;;;;36.55;18.38;;;;;;;2.63;72.68;96680.75;4976816;28;20097;-81
2021/03/03 00:50:09;;;;;;;33.75;18.40;;;;;;;2.63;72.58;96680.75;4977279;28;20042;-80
2021/03/03 00:52:34;;;;;;;33.67;19.52;;;;;;;2.58;72.51;96673.50;4994252;28;20117;-80
2021/03/03 00:54:59;;;;;;;43.45;19.75;;;;;;;2.58;72.70;96674.31;4978800;28;20484;-80
2021/03/03 00:57:25;;;;;;;36.80;18.67;;;;;;;2.58;72.40;96674.31;4994497;28;20038;-79
2021/03/03 00:59:50;;;;;;;33.40;17.40;;;;;;;2.52;72.90;96667.28;4994443;28;20042;-81
2021/03/03 01:02:17;;;;;;;33.38;18.17;;;;;;;2.52;73.04;96666.47;4976921;28;20118;-80
2021/03/03 01:04:42;;;;;;;37.35;17.75;;;;;;;2.57;72.85;96680.56;4994145;28;20042;-79
2021/03/03 01:07:07;;;;;;;33.20;17.30;;;;;;;2.47;72.90;96663.69;4995831;28;20037;-80
2021/03/03 01:09:33;;;;;;;31.83;17.70;;;;;;;2.51;72.87;96678.00;4994224;28;20130;-80
2021/03/03 01:11:58;;;;;;;33.92;17.88;;;;;;;2.54;72.92;96681.00;4994606;28;20035;-78
2021/03/03 01:14:23;;;;;;;33.47;18.40;;;;;;;2.50;73.00;96679.00;4993941;28;20432;-79
2021/03/03 01:16:51;;;;;;;33.67;17.55;;;;;;;2.44;73.30;96670.16;4993591;28;20066;-81
2021/03/03 01:19:17;;;;;;;31.58;17.15;;;;;;;2.38;73.27;96650.03;4976523;28;20081;-80
2021/03/03 01:21:43;;;;;;;30.00;17.80;;;;;;;2.46;72.92;96655.03;4978376;28;20026;-80
2021/03/03 01:24:09;;;;;;;36.20;18.33;;;;;;;2.47;73.30;96663.69;4993785;28;20085;-80
2021/03/03 01:26:34;;;;;;;34.42;17.40;;;;;;;2.45;73.08;96661.25;4993736;28;20093;-79
2021/03/03 01:29:00;;;;;;;41.75;18.52;;;;;;;2.43;73.11;96665.13;4993580;28;20058;-79
2021/03/03 01:31:25;;;;;;;37.38;17.73;;;;;;;2.31;73.19;96646.66;4993798;28;20084;-80
2021/03/03 01:33:50;;;;;;;27.40;16.65;;;;;;;2.33;72.69;96650.66;4978470;28;20042;-80
2021/03/03 01:36:15;;;;;;;35.83;17.33;;;;;;;2.27;73.04;96645.47;4992547;28;20046;-80
2021/03/03 01:38:42;;;;;;;42.63;19.30;;;;;;;2.25;73.38;96639.63;4993526;28;20038;-80
2021/03/03 01:41:07;;;;;;;35.13;18.48;;;;;;;2.26;73.45;96636.81;4993658;28;20400;-81
2021/03/03 01:43:33;;;;;;;31.95;17.30;;;;;;;2.22;73.59;96638.25;4976340;28;20085;-79
2021/03/03 01:45:58;;;;;;;33.72;18.42;;;;;;;2.16;73.67;96622.56;4995530;28;20023;-81
2021/03/03 01:48:24;;;;;;;31.98;17.55;;;;;;;2.17;73.70;96629.41;4993627;28;20125;-79
2021/03/03 01:50:50;;;;;;;30.73;17.20;;;;;;;2.23;73.75;96644.28;4993614;28;20034;-80
2021/03/03 01:53:16;;;;;;;39.55;18.77;;;;;;;2.21;73.71;96639.25;4992899;28;20034;-81
2021/03/03 01:55:42;;;;;;;35.97;17.35;;;;;;;2.17;73.54;96639.91;4993491;28;20428;-81
2021/03/03 01:58:07;;;;;;;41.55;19.02;;;;;;;2.11;73.34;96640.75;4977898;28;20408;-80
2021/03/03 02:00:32;;;;;;;40.40;18.95;;;;;;;1.99;73.30;96632.75;4993368;28;20042;-81
2021/03/03 02:02:58;;;;;;;35.03;18.48;;;;;;;2.03;73.73;96653.09;4992969;28;20046;-80
2021/03/03 02:05:25;;;;;;;34.95;16.75;;;;;;;1.92;73.39;96635.44;4993530;28;20448;-79
2021/03/03 02:07:59;;;;;;;34.78;16.90;;;;;;;1.93;73.24;96644.91;4974876;28;20051;-80
2021/03/03 02:10:41;;;;;;;39.28;17.92;;;;;;;1.91;73.38;96644.31;4992746;28;20034;-79
2021/03/03 02:13:14;;;;;;;25.20;15.18;;;;;;;1.82;73.67;96633.25;4977517;28;20065;-80
2021/03/03 02:15:41;;;;;;;;;;;;;;;1.84;73.67;96643.53;4976374;28;20401;-80
2021/03/03 02:18:10;;;;;;;25.27;12.85;;;;;;;1.70;74.29;96634.97;4992624;28;19918;-80
2021/03/03 02:20:49;;;;;;;22.95;12.60;;;;;;;1.79;74.15;96646.81;4992842;28;20030;-80
2021/03/03 02:23:24;;;;;;;18.63;11.60;;;;;;;1.77;74.01;96640.97;4992816;28;20038;-80
2021/03/03 02:25:50;;;;;;;18.48;12.45;;;;;;;1.81;73.96;96630.88;4975603;28;20501;-81
2021/03/03 02:28:16;;;;;;;18.45;12.13;;;;;;;1.83;73.98;96645.38;4992345;28;20026;-80
2021/03/03 02:30:44;;;;;;;22.33;13.00;;;;;;;1.68;73.63;96634.34;4977171;28;20030;-80
2021/03/03 02:33:12;;;;;;;20.55;11.68;;;;;;;1.75;73.81;96640.38;4975249;28;20030;-80
2021/03/03 02:35:38;;;;;;;17.13;11.55;;;;;;;1.34;75.80;96645.25;4992348;28;20080;-82
2021/03/03 02:38:05;;;;;;;19.80;12.20;;;;;;;1.08;77.02;96625.19;4992591;28;20046;-80
2021/03/03 02:40:31;;;;;;;18.77;10.48;;;;;;;1.17;77.05;96626.53;4975070;28;20030;-79
2021/03/03 02:42:57;;;;;;;19.25;11.05;;;;;;;1.33;75.79;96630.50;4993953;28;20034;-77
2021/03/03 02:45:25;;;;;;;19.67;11.25;;;;;;;1.16;76.22;96635.41;4992240;28;20109;-80
2021/03/03 02:47:52;;;;;;;19.13;12.45;;;;;;;1.21;76.40;96644.28;4992054;28;20043;-82
2021/03/03 02:50:18;;;;;;;17.30;11.90;;;;;;;1.39;74.90;96634.94;4992392;28;20101;-79
2021/03/03 02:52:56;;;;;;;19.25;11.68;;;;;;;1.39;74.71;96632.31;4992067;28;20038;-81
2021/03/03 02:55:27;;;;;;;16.67;10.77;;;;;;;1.39;75.44;96650.66;4992085;28;20031;-79
2021/03/03 02:57:54;;;;;;;18.98;12.38;;;;;;;1.51;74.66;96631.44;4994140;28;20069;-81
2021/03/03 03:00:22;;;;;;;26.77;13.60;;;;;;;1.61;73.93;96638.84;4974829;28;20082;-78
2021/03/03 03:02:51;;;;;;;21.98;13.52;;;;;;;1.57;73.28;96627.16;4991989;28;20034;-78
2021/03/03 03:05:19;;;;;;;24.60;13.52;;;;;;;1.66;72.99;96636.41;4973970;28;20064;-80
2021/03/03 03:07:48;;;;;;;22.67;13.40;;;;;;;1.47;72.43;96613.69;4991718;28;20086;-80
2021/03/03 03:10:16;;;;;;;29.02;13.77;;;;;;;1.56;72.94;96631.59;4974831;28;20027;-79
2021/03/03 03:12:48;;;;;;;23.38;12.65;;;;;;;1.61;73.39;96638.03;4993817;28;20101;-79
2021/03/03 03:15:15;;;;;;;;;;;;;;;1.61;73.13;96630.19;4992407;28;20070;-79
2021/03/03 03:17:42;;;;;;;31.58;13.35;;;;;;;1.54;73.49;96617.91;4991683;28;19964;-77
2021/03/03 03:20:11;;;;;;;29.80;13.32;;;;;;;1.58;73.08;96627.97;4991896;28;20130;-80
2021/03/03 03:22:38;;;;;;;28.50;13.20;;;;;;;1.47;72.98;96618.94;4991768;28;20053;-79
2021/03/03 03:25:04;;;;;;;19.77;12.00;;;;;;;1.46;73.17;96610.28;4993681;28;20026;-80
2021/03/03 03:27:31;;;;;;;26.30;14.10;;;;;;;1.37;73.30;96603.66;4991552;28;20038;-79
2021/03/03 03:29:59;;;;;;;22.92;11.80;;;;;;;1.47;73.23;96624.19;4991907;28;20042;-79
2021/03/03 03:32:25;;;;;;;18.90;12.32;;;;;;;1.45;73.28;96624.41;4991561;28;20480;-78
2021/03/03 03:34:51;;;;;;;20.42;12.50;;;;;;;1.43;73.28;96623.78;4991326;28;20053;-79
2021/03/03 03:37:19;;;;;;;21.40;12.35;;;;;;;1.43;73.16;96626.41;4991601;28;20053;-78
2021/03/03 03:39:44;;;;;;;18.83;11.40;;;;;;;1.41;73.26;96620.59;4976209;28;20816;-77
2021/03/03 03:42:14;;;;;;;18.85;10.95;;;;;;;1.43;73.22;96618.56;4991447;28;20042;-79
2021/03/03 03:44:41;;;;;;;17.73;11.55;;;;;;;1.44;73.32;96622.00;4991285;28;20154;-79
2021/03/03 03:47:07;;;;;;;18.83;10.60;;;;;;;1.47;73.41;96627.63;4990926;28;20042;-79
2021/03/03 03:49:33;;;;;;;15.70;11.00;;;;;;;1.46;73.56;96614.72;4990896;28;20365;-78
2021/03/03 03:51:58;;;;;;;17.85;10.25;;;;;;;1.46;73.60;96617.34;4993021;28;20097;-78
2021/03/03 03:54:23;;;;;;;17.50;10.27;;;;;;;1.52;73.50;96624.38;4991413;28;20404;-78
2021/03/03 03:56:49;;;;;;;14.43;9.13;;;;;;;1.51;73.50;96634.06;4991365;28;20046;-79
2021/03/03 03:59:14;;;;;;;11.63;8.75;;;;;;;1.53;73.98;96637.25;4991544;28;20047;-79
2021/03/03 04:01:39;;;;;;;11.40;8.68;;;;;;;1.56;73.84;96642.09;4991307;28;20615;-79
2021/03/03 04:04:05;;;;;;;15.35;8.40;;;;;;;1.28;74.79;96650.31;4993197;28;20022;-79
2021/03/03 04:06:30;;;;;;;13.20;8.60;;;;;;;1.43;74.20;96647.41;4991409;28;20034;-79
2021/03/03 04:08:55;;;;;;;12.20;8.52;;;;;;;1.63;73.24;96642.06;4991237;28;20046;-79
2021/03/03 04:11:21;;;;;;;10.25;8.05;;;;;;;1.68;72.78;96644.03;4973930;28;20045;-80
2021/03/03 04:13:46;;;;;;;12.20;8.25;;;;;;;1.66;72.82;96625.09;4991277;28;20038;-80
2021/03/03 04:16:11;;;;;;;11.60;8.30;;;;;;;1.81;72.84;96644.78;4975154;28;20026;-78
2021/03/03 04:18:37;;;;;;;13.35;8.63;;;;;;;1.82;72.46;96642.97;4996565;28;20053;-79
2021/03/03 04:21:02;;;;;;;11.35;8.10;;;;;;;1.78;72.28;96649.63;4995218;28;20037;-79
2021/03/03 04:23:28;;;;;;;12.88;7.90;;;;;;;1.60;72.82;96636.44;4995357;28;20030;-77
2021/03/03 04:25:53;;;;;;;12.55;6.50;;;;;;;1.74;72.83;96637.94;4995154;28;20045;-78
2021/03/03 04:28:18;;;;;;;12.48;7.53;;;;;;;1.77;72.88;96653.28;4993503;28;20084;-79
2021/03/03 04:30:44;;;;;;;12.85;7.80;;;;;;;1.92;72.28;96653.78;4979405;28;20023;-78
2021/03/03 04:33:12;;;;;;;11.82;9.20;;;;;;;2.01;71.73;96659.59;4994695;28;20023;-79
2021/03/03 04:35:38;;;;;;;12.73;8.63;;;;;;;1.89;71.31;96658.66;4994532;28;20126;-79
2021/03/03 04:38:03;;;;;;;10.32;7.18;;;;;;;1.71;72.50;96651.50;4994382;28;20464;-80
2021/03/03 04:40:29;;;;;;;12.85;7.60;;;;;;;1.86;72.12;96646.78;4994349;28;20037;-79
2021/03/03 04:42:54;;;;;;;14.77;9.00;;;;;;;1.96;71.55;96652.34;4996436;28;20045;-78
2021/03/03 04:45:19;;;;;;;16.48;8.88;;;;;;;1.96;71.39;96662.06;4994587;28;20407;-78
2021/03/03 04:47:45;;;;;;;11.90;8.65;;;;;;;1.93;70.91;96662.47;4976966;28;20153;-79
2021/03/03 04:50:10;;;;;;;11.55;8.45;;;;;;;1.86;71.18;96646.78;4994632;28;20126;-79
2021/03/03 04:52:36;;;;;;;11.65;8.88;;;;;;;1.91;70.74;96654.81;4976964;28;20100;-79
2021/03/03 04:55:02;;;;;;;15.73;9.52;;;;;;;1.92;70.96;96653.00;4996486;28;20034;-77
2021/03/03 04:57:28;;;;;;;17.33;9.63;;;;;;;1.79;71.05;96628.47;4994113;28;20039;-77
2021/03/03 04:59:53;;;;;;;15.35;9.32;;;;;;;1.84;71.00;96630.41;4977002;28;20058;-79
2021/03/03 05:02:18;;;;;;;11.45;7.80;;;;;;;1.78;71.05;96632.06;4994362;28;20042;-77
2021/03/03 05:04:45;;;;;;;18.25;9.93;;;;;;;1.83;71.10;96641.94;4994351;28;20066;-77
2021/03/03 05:07:11;;;;;;;13.23;8.93;;;;;;;1.69;71.23;96624.66;4976828;28;20050;-79
2021/03/03 05:09:37;;;;;;;16.63;9.57;;;;;;;1.66;71.11;96619.84;4996280;28;20048;-78
2021/03/03 05:12:02;;;;;;;15.70;8.85;;;;;;;1.74;71.49;96637.94;4994195;28;20035;-79
2021/03/03 05:14:28;;;;;;;17.27;9.27;;;;;;;1.69;71.60;96622.88;4994068;28;20382;-80
2021/03/03 05:16:53;;;;;;;14.30;8.52;;;;;;;1.75;71.51;96631.72;4993717;28;20051;-79
2021/03/03 05:19:19;;;;;;;12.82;9.23;;;;;;;1.71;71.46;96617.41;4994230;28;20034;-78
2021/03/03 05:21:44;;;;;;;13.23;7.70;;;;;;;1.72;71.40;96621.63;4978479;28;20018;-80
2021/03/03 05:24:10;;;;;;;10.20;7.85;;;;;;;1.77;71.46;96627.03;4993789;28;20038;-78
2021/03/03 05:26:35;;;;;;;13.13;8.23;;;;;;;1.76;71.46;96617.56;4993708;28;20038;-80
2021/03/03 05:29:00;;;;;;;21.45;8.60;;;;;;;1.85;71.28;96620.75;4992876;28;20038;-78
2021/03/03 05:31:25;;;;;;;11.30;6.85;;;;;;;1.88;71.40;96608.00;4993665;28;20500;-76
2021/03/03 05:33:51;;;;;;;8.82;6.72;;;;;;;1.92;71.32;96619.69;4995546;28;20061;-79
2021/03/03 05:36:16;;;;;;;8.15;5.70;;;;;;;1.72;71.13;96577.84;4993283;28;20042;-78
2021/03/03 05:38:42;;;;;;;11.07;5.97;;;;;;;2.05;70.70;96622.22;4993466;28;20208;-79
2021/03/03 05:41:09;;;;;;;8.95;5.35;;;;;;;2.11;70.61;96614.50;4993582;28;20145;-79
2021/03/03 05:43:36;;;;;;;9.60;5.88;;;;;;;2.25;70.25;96623.88;4993237;28;20044;-77
2021/03/03 05:46:03;;;;;;;8.35;5.60;;;;;;;2.32;70.09;96617.56;4994918;28;20027;-78
2021/03/03 05:48:43;;;;;;;7.75;5.18;;;;;;;2.36;69.33;96611.88;4993171;28;20050;-77
2021/03/03 05:51:09;;;;;;;8.93;5.05;;;;;;;2.53;69.22;96626.06;4993212;28;20053;-77
2021/03/03 05:53:35;;;;;;;7.72;4.65;;;;;;;2.63;69.05;96622.94;4993169;28;20113;-78
2021/03/03 05:56:03;;;;;;;8.18;5.20;;;;;;;2.69;68.71;96619.44;4993329;28;20065;-79
2021/03/03 05:58:30;;;;;;;8.80;5.07;;;;;;;2.72;68.22;96611.94;4993013;28;20090;-79
2021/03/03 06:00:57;;;;;;;7.18;4.93;;;;;;;2.89;68.58;96612.16;4995168;28;20117;-79
2021/03/03 06:03:24;;;;;;;7.90;4.70;;;;;;;3.00;67.60;96621.13;4992702;28;20122;-79
2021/03/03 06:05:49;;;;;;;5.13;4.60;;;;;;;3.02;67.50;96609.38;4992505;28;20042;-78
2021/03/03 06:08:16;;;;;;;9.23;5.00;;;;;;;3.22;67.18;96627.53;4992145;28;20041;-79
2021/03/03 06:10:42;;;;;;;9.45;4.72;;;;;;;3.33;66.62;96626.03;4992461;28;20049;-80
2021/03/03 06:13:07;;;;;;;5.50;4.60;;;;;;;3.41;66.30;96619.63;4977055;28;20022;-80
2021/03/03 06:15:33;;;;;;;7.97;4.38;;;;;;;3.50;65.80;96615.69;4975282;28;20048;-79
2021/03/03 06:17:58;;;;;;;9.52;4.65;;;;;;;3.60;65.18;96621.22;4992175;28;20035;-80
2021/03/03 06:20:24;;;;;;;4.63;3.97;;;;;;;3.74;64.89;96621.84;4992370;28;20045;-80
2021/03/03 06:22:50;;;;;;;7.65;4.07;;;;;;;3.93;64.78;96620.72;4992096;28;20042;-80
2021/03/03 06:25:23;;;;;;;9.68;4.07;;;;;;;4.11;64.20;96623.31;4992570;28;20031;-79
2021/03/03 06:27:48;;;;;;;6.85;4.40;;;;;;;4.09;63.64;96604.28;4993638;28;20381;-77
2021/03/03 06:30:18;;;;;;;9.63;4.20;;;;;;;4.33;63.55;96626.19;4991674;28;20030;-78
2021/03/03 06:32:57;;;;;;;7.05;3.88;;;;;;;4.41;63.01;96614.53;4974519;28;20037;-78
2021/03/03 06:35:33;;;;;;;6.65;3.55;;;;;;;4.48;62.47;96614.41;4991916;28;20046;-78
2021/03/03 06:37:59;;;;;;;4.63;3.72;;;;;;;4.60;62.51;96621.25;4991578;28;20196;-76
2021/03/03 06:40:24;;;;;;;5.78;3.85;;;;;;;4.51;62.28;96600.78;4973628;28;20454;-76
2021/03/03 06:42:50;;;;;;;5.63;4.07;;;;;;;4.65;62.16;96608.19;4993914;28;20537;-77
2021/03/03 06:45:30;;;;;;;8.07;3.75;;;;;;;4.84;61.77;96621.25;4990722;28;20047;-75
2021/03/03 06:47:55;;;;;;;10.27;3.83;;;;;;;4.96;61.48;96624.69;4969667;28;20035;-76
2021/03/03 06:50:30;;;;;;;12.27;3.53;;;;;;;5.01;60.97;96611.59;4969550;28;20421;-76
2021/03/03 06:52:55;;;;;;;8.68;3.40;;;;;;;5.12;60.63;96596.81;4989622;28;20045;-76
2021/03/03 06:55:20;;;;;;;7.75;3.40;;;;;;;5.35;60.40;96611.75;4989772;28;20030;-76
2021/03/03 06:57:46;;;;;;;7.10;3.58;;;;;;;5.47;59.96;96610.66;4992082;28;20022;-76
2021/03/03 07:00:11;;;;;;;13.85;3.78;;;;;;;5.52;59.67;96596.78;4990211;28;20057;-74
2021/03/03 07:02:38;;;;;;;7.20;3.70;;;;;;;5.70;58.88;96614.28;4990041;28;20121;-73
2021/03/03 07:05:04;;;;;;;10.80;3.35;;;;;;;5.82;58.52;96615.00;4990096;28;20457;-78
2021/03/03 07:07:29;;;;;;;9.85;3.70;;;;;;;5.87;58.13;96609.03;4990220;28;20058;-76
2021/03/03 07:09:59;;;;;;;6.63;3.92;;;;;;;6.08;57.81;96621.56;4992095;28;20045;-76
2021/03/03 07:12:27;;;;;;;10.07;3.88;;;;;;;6.16;57.37;96618.53;4991013;28;20039;-80
2021/03/03 07:14:58;;;;;;;13.43;3.58;;;;;;;6.25;57.17;96617.09;4992428;28;20393;-83
2021/03/03 07:17:33;;;;;;;4.10;3.40;;;;;;;6.45;57.08;96623.75;4991676;28;20042;-82
2021/03/03 07:20:02;;;;;;;5.50;3.15;;;;;;;6.60;56.21;96628.44;4991817;28;20066;-81
2021/03/03 07:22:31;;;;;;;5.10;3.38;;;;;;;6.68;55.03;96634.13;4991809;28;20030;-79
2021/03/03 07:25:03;;;;;;;9.07;3.30;;;;;;;6.78;54.62;96630.84;4993555;28;20108;-81
2021/03/03 07:27:28;;;;;;;6.35;3.70;;;;;;;7.00;54.58;96629.03;4991716;28;20061;-83
2021/03/03 07:29:59;;;;;;;5.47;3.60;;;;;;;7.09;54.38;96624.13;4973822;28;20504;-77
2021/03/03 07:32:25;;;;;;;9.52;3.53;;;;;;;7.26;54.01;96622.22;4990752;28;20030;-79
2021/03/03 07:34:52;;;;;;;6.40;3.33;;;;;;;7.40;53.34;96616.56;4990385;28;20405;-81
2021/03/03 07:37:21;;;;;;;6.70;3.25;;;;;;;7.70;53.09;96634.66;4989966;28;20102;-82
2021/03/03 07:39:56;;;;;;;5.80;3.30;;;;;;;7.86;52.86;96623.16;4991684;28;20026;-80
2021/03/03 07:42:27;;;;;;;4.68;3.75;;;;;;;8.16;51.69;96635.09;4989502;28;20114;-69
2021/03/03 07:44:58;;;;;;;8.38;3.10;;;;;;;8.37;51.57;96628.94;4989945;28;20042;-76
2021/03/03 07:47:28;;;;;;;9.20;3.15;;;;;;;8.63;51.14;96634.44;4989648;28;20105;-77
2021/03/03 07:50:10;;;;;;;11.93;3.38;;;;;;;8.84;50.24;96631.66;4989740;28;20046;-77
2021/03/03 07:52:39;;;;;;;5.22;3.00;;;;;;;9.05;49.58;96629.13;4993137;28;20039;-75
2021/03/03 07:55:05;;;;;;;6.35;2.97;;;;;;;9.20;49.28;96623.91;4978042;28;20523;-76
2021/03/03 07:57:34;;;;;;;17.75;3.72;;;;;;;9.36;48.68;96617.59;5004511;23;20053;-75
2021/03/03 08:00:05;;;;;;;8.77;3.13;;;;;;;9.59;48.37;96620.88;4993690;28;20038;-73
2021/03/03 08:02:45;;;;;;;12.50;3.72;;;;;;;9.73;47.31;96622.00;4993566;28;20073;-73
2021/03/03 08:05:11;;;;;;;8.43;2.85;;;;;;;9.83;46.66;96622.00;4993491;28;20058;-72
2021/03/03 08:07:36;;;;;;;4.03;3.15;;;;;;;9.75;45.34;96611.88;4992920;28;20049;-73
2021/03/03 08:10:13;;;;;;;7.18;3.40;;;;;;;10.01;46.33;96619.91;4994936;28;20034;-76
2021/03/03 08:12:59;;;;;;;8.88;3.40;;;;;;;10.03;45.99;96613.28;4976047;28;20649;-75
2021/03/03 08:15:36;;;;;;;7.85;3.90;;;;;;;10.13;45.76;96615.94;4993025;28;20054;-75
2021/03/03 08:18:19;;;;;;;7.00;3.15;;;;;;;10.26;45.49;96616.50;4992786;28;20042;-72
2021/03/03 08:20:48;;;;;;;9.68;3.13;;;;;;;10.26;44.15;96622.63;4992969;28;20046;-74
2021/03/03 08:23:40;;;;;;;6.90;3.25;;;;;;;10.46;44.46;96619.19;4992465;28;20129;-74
2021/03/03 08:26:17;;;;;;;8.43;3.42;;;;;;;10.60;43.86;96614.13;4992788;28;20034;-72
2021/03/03 08:28:43;;;;;;;4.82;2.63;;;;;;;10.70;43.06;96622.09;4992497;28;20124;-72
2021/03/03 08:31:08;;;;;;;3.92;2.25;;;;;;;10.82;42.50;96614.63;4977066;28;20472;-73
2021/03/03 08:33:35;;;;;;;6.65;2.40;;;;;;;10.81;41.74;96614.91;4992488;28;20046;-73
2021/03/03 08:36:01;;;;;;;6.13;2.88;;;;;;;11.04;42.37;96618.81;4992641;28;20492;-73
2021/03/03 08:38:26;;;;;;;2.72;2.22;;;;;;;11.24;42.44;96626.75;4992354;28;20050;-74
2021/03/03 08:40:52;;;;;;;4.78;2.42;;;;;;;11.37;41.48;96628.84;4992654;28;20092;-74
2021/03/03 08:43:34;;;;;;;16.25;3.15;;;;;;;11.50;41.49;96611.47;4992171;28;20030;-73
2021/03/03 08:46:00;;;;;;;12.55;3.70;;;;;;;11.71;41.14;96614.84;4994365;28;20033;-73
2021/03/03 08:48:26;;;;;;;14.80;3.10;;;;;;;11.89;41.21;96613.44;4991957;28;20039;-73
2021/03/03 08:50:54;;;;;;;9.32;3.03;;;;;;;11.98;40.57;96611.81;4992143;28;20534;-73
2021/03/03 08:53:29;;;;;;;20.05;2.83;;;;;;;12.18;40.91;96613.50;4991931;28;20432;-74
2021/03/03 08:55:55;;;;;;;15.57;3.30;;;;;;;12.25;40.44;96600.66;4992000;28;20054;-74
2021/03/03 08:58:33;;;;;;;13.20;3.28;;;;;;;12.51;40.23;96605.81;4991447;28;20033;-75
2021/03/03 09:00:59;;;;;;;16.27;3.47;;;;;;;12.62;40.28;96609.97;4994131;28;20073;-75
2021/03/03 09:03:25;;;;;;;5.20;2.67;;;;;;;12.79;40.17;96618.34;4990636;28;20038;-75
2021/03/03 09:05:55;;;;;;;9.85;3.17;;;;;;;12.98;39.17;96616.56;4974529;28;20126;-74
2021/03/03 09:08:24;;;;;;;4.95;2.47;;;;;;;13.17;38.87;96618.53;4991740;28;20041;-74
2021/03/03 09:10:51;;;;;;;14.30;3.35;;;;;;;13.34;38.73;96615.41;4991940;28;20046;-75
2021/03/03 09:13:28;;;;;;;7.63;2.47;;;;;;;13.41;38.56;96613.19;4991555;28;20507;-73
2021/03/03 09:16:07;;;;;;;6.10;2.40;;;;;;;13.58;37.66;96621.56;4993945;28;20030;-71
2021/03/03 09:18:34;;;;;;;10.90;2.83;;;;;;;13.64;37.59;96608.91;4992022;28;20133;-75
2021/03/03 09:21:11;;;;;;;5.93;2.38;;;;;;;13.87;37.42;96612.59;4992699;28;20066;-72
2021/03/03 09:23:38;;;;;;;5.45;2.40;;;;;;;14.03;37.23;96609.44;4992844;28;20085;-79
2021/03/03 09:26:22;;;;;;;5.43;2.40;;;;;;;14.18;36.20;96611.09;4992699;28;20452;-70
2021/03/03 09:28:47;;;;;;;10.63;3.00;;;;;;;14.31;35.83;96604.22;4991746;28;20046;-73
2021/03/03 09:31:44;;;;;;;8.77;2.40;;;;;;;14.49;35.65;96599.97;4992175;28;20392;-72
2021/03/03 09:34:10;;;;;;;22.88;3.67;;;;;;;14.61;35.57;96602.16;4970341;28;20045;-62
2021/03/03 09:36:35;;;;;;;13.13;4.07;;;;;;;14.73;35.00;96595.22;4993695;28;20018;-72
2021/03/03 09:39:03;;;;;;;4.18;3.00;;;;;;;14.89;34.75;96600.31;4991055;28;20050;-76
2021/03/03 09:41:28;;;;;;;13.55;3.97;;;;;;;14.99;34.33;96600.94;4992263;28;20047;-76
2021/03/03 09:44:07;;;;;;;11.27;3.38;;;;;;;15.17;33.90;96595.81;4974018;28;20145;-77
2021/03/03 09:46:52;;;;;;;5.55;2.80;;;;;;;15.26;33.55;96592.13;4992270;28;20038;-84
2021/03/03 09:49:31;;;;;;;6.65;3.55;;;;;;;15.44;33.14;96590.44;4991431;28;20069;-69
2021/03/03 09:51:59;;;;;;;4.75;2.80;;;;;;;15.66;32.88;96594.31;4976017;28;20689;-75
2021/03/03 09:54:38;;;;;;;6.38;2.97;;;;;;;15.82;32.58;96596.38;4991524;28;20493;-74
2021/03/03 09:57:08;;;;;;;9.45;4.15;;;;;;;15.71;32.13;96597.66;4992158;28;20052;-76
2021/03/03 09:59:35;;;;;;;4.88;2.38;;;;;;;15.85;32.24;96589.59;4991802;28;20057;-78
2021/03/03 10:02:01;;;;;;;6.32;2.88;;;;;;;16.03;30.63;96595.94;4991713;28;20034;-77
2021/03/03 10:04:26;;;;;;;3.17;2.55;;;;;;;16.19;31.28;96599.06;4992043;28;20023;-76
2021/03/03 10:06:54;;;;;;;3.50;2.60;;;;;;;16.35;30.75;96592.22;4993609;28;20105;-76
2021/03/03 10:09:19;;;;;;;4.40;2.47;;;;;;;16.52;30.31;96592.34;4974356;28;20129;-78
2021/03/03 10:11:45;;;;;;;3.83;2.10;;;;;;;16.63;30.18;96593.69;4991699;28;20126;-86
2021/03/03 10:14:11;;;;;;;3.60;2.00;;;;;;;16.64;29.43;96595.28;4991543;28;20096;-78
2021/03/03 10:16:36;;;;;;;3.50;2.20;;;;;;;16.85;29.27;96603.63;4974419;28;20066;-77
2021/03/03 10:19:05;;;;;;;4.72;2.15;;;;;;;16.98;29.65;96595.78;4992787;28;20030;-76
2021/03/03 10:21:31;;;;;;;4.28;2.17;;;;;;;17.09;29.23;96597.88;4991124;28;20400;-80
2021/03/03 10:23:57;;;;;;;5.05;2.47;;;;;;;16.96;28.55;96582.66;4973530;28;20038;-76
2021/03/03 10:26:45;;;;;;;3.25;2.17;;;;;;;17.13;28.52;96584.63;4992139;28;20507;-82
2021/03/03 10:29:10;;;;;;;5.53;2.60;;;;;;;17.23;28.85;96580.88;4992561;28;20125;-79
2021/03/03 10:31:38;;;;;;;6.35;2.80;;;;;;;17.38;28.30;96580.44;4992067;28;20116;-82
2021/03/03 10:34:12;;;;;;;5.60;2.10;;;;;;;17.45;28.14;96571.91;4994084;28;20030;-81
2021/03/03 10:36:42;;;;;;;4.78;2.63;;;;;;;17.49;28.03;96568.28;4992556;28;20030;-80
2021/03/03 10:39:10;;;;;;;8.60;2.97;;;;;;;17.55;27.37;96574.31;4991747;28;20042;-82
2021/03/03 10:41:36;;;;;;;5.82;2.88;;;;;;;17.63;27.23;96574.34;4973811;28;20062;-77
2021/03/03 10:44:03;;;;;;;3.80;2.75;;;;;;;17.79;27.08;96580.09;4992217;28;20038;-84
2021/03/03 10:46:29;;;;;;;5.78;3.17;;;;;;;17.86;26.91;96575.03;4974310;28;20022;-79
2021/03/03 10:49:09;;;;;;;4.32;2.78;;;;;;;17.91;26.98;96579.47;4992841;28;20030;-79
2021/03/03 10:51:36;;;;;;;7.72;3.30;;;;;;;17.57;26.54;96578.28;4974375;28;20109;-78
2021/03/03 10:54:02;;;;;;;7.32;2.95;;;;;;;17.39;26.62;96560.50;4990967;28;20031;-78
2021/03/03 10:56:33;;;;;;;8.93;3.55;;;;;;;17.59;27.10;96561.81;4972940;28;20172;-77
2021/03/03 10:59:21;;;;;;;4.72;2.90;;;;;;;17.84;26.31;96587.22;4991531;28;20088;-81
2021/03/03 11:02:00;;;;;;;7.78;2.72;;;;;;;17.72;25.85;96577.06;4991923;28;20057;-83
2021/03/03 11:04:46;;;;;;;4.10;2.60;;;;;;;17.38;26.24;96583.94;4992102;28;20030;-83
2021/03/03 11:07:13;;;;;;;6.57;2.90;;;;;;;17.38;27.03;96575.06;4992087;28;20112;-86
2021/03/03 11:09:39;;;;;;;5.15;2.83;;;;;;;17.84;27.04;96571.88;4994063;28;20042;-83
2021/03/03 11:12:06;;;;;;;4.43;2.97;;;;;;;17.71;26.02;96572.78;4992141;28;20034;-85
2021/03/03 11:14:32;;;;;;;4.80;2.88;;;;;;;17.83;25.71;96556.81;4992088;28;20105;-83
2021/03/03 11:16:59;;;;;;;3.35;3.05;;;;;;;18.26;26.16;96561.41;4991914;28;20194;-84
2021/03/03 11:19:25;;;;;;;4.93;3.50;;;;;;;18.02;25.09;96548.44;4974823;28;20022;-85
2021/03/03 11:21:52;;;;;;;5.53;3.42;;;;;;;18.10;25.28;96553.03;4993532;28;20026;-81
2021/03/03 11:24:18;;;;;;;6.13;3.35;;;;;;;18.12;24.81;96552.72;4974639;28;20038;-83
2021/03/03 11:26:44;;;;;;;4.50;3.47;;;;;;;18.30;25.13;96559.66;4991084;28;20037;-85
2021/03/03 11:29:10;;;;;;;4.82;3.70;;;;;;;17.34;25.68;96550.69;4992090;28;20042;-83
2021/03/03 11:31:37;;;;;;;4.38;4.03;;;;;;;16.53;26.11;96552.84;4991782;28;20085;-83
2021/03/03 11:34:03;;;;;;;6.20;3.72;;;;;;;16.35;26.68;96551.94;4993513;28;20026;-85
2021/03/03 11:36:29;;;;;;;7.75;4.07;;;;;;;17.30;26.00;96546.25;4992176;28;20041;-81